createdAt,value
2019-05-29T00:00:48.831Z,17.40
2019-05-29T00:03:19.166Z,17.40
2019-05-29T00:05:49.422Z,17.40
2019-05-29T00:08:19.722Z,17.40
2019-05-29T00:10:51.074Z,17.40
2019-05-29T00:13:22.372Z,17.40
2019-05-29T00:15:52.630Z,17.40
2019-05-29T00:18:24.951Z,17.40
2019-05-29T00:20:55.265Z,17.40
2019-05-29T00:23:26.041Z,17.30
2019-05-29T00:25:56.468Z,17.30
2019-05-29T00:28:27.308Z,17.30
2019-05-29T00:30:57.616Z,17.30
2019-05-29T00:33:28.006Z,17.30
2019-05-29T00:35:58.303Z,17.30
2019-05-29T00:38:28.628Z,17.30
2019-05-29T00:40:59.979Z,17.20
2019-05-29T00:43:30.299Z,17.30
2019-05-29T00:46:01.917Z,17.20
2019-05-29T00:48:32.239Z,17.20
2019-05-29T00:51:02.517Z,17.30
2019-05-29T00:53:32.779Z,17.30
2019-05-29T00:56:03.481Z,17.20
2019-05-29T00:58:33.775Z,17.20
2019-05-29T01:01:04.148Z,17.20
2019-05-29T01:03:36.336Z,17.20
2019-05-29T01:06:06.428Z,17.10
2019-05-29T01:08:37.689Z,17.10
2019-05-29T01:11:07.948Z,17.10
2019-05-29T01:13:38.540Z,17.10
2019-05-29T01:16:08.844Z,17.00
2019-05-29T01:18:39.014Z,17.00
2019-05-29T01:21:09.312Z,17.10
2019-05-29T01:23:39.589Z,17.10
2019-05-29T01:26:12.429Z,17.10
2019-05-29T01:28:42.813Z,17.10
2019-05-29T01:31:13.621Z,17.10
2019-05-29T01:33:44.336Z,17.20
2019-05-29T01:36:15.711Z,17.20
2019-05-29T01:38:48.261Z,17.20
2019-05-29T01:41:17.750Z,17.20
2019-05-29T01:43:47.845Z,17.20
2019-05-29T01:46:19.497Z,17.20
2019-05-29T01:48:50.088Z,17.20
2019-05-29T01:51:21.798Z,17.20
2019-05-29T01:53:52.249Z,17.20
2019-05-29T01:56:23.854Z,17.20
2019-05-29T01:58:54.348Z,17.20
2019-05-29T02:01:24.653Z,17.20
2019-05-29T02:03:54.983Z,17.20
2019-05-29T02:06:25.254Z,17.20
2019-05-29T02:08:56.597Z,17.20
2019-05-29T02:11:27.550Z,17.20
2019-05-29T02:13:58.014Z,17.20
2019-05-29T02:16:28.332Z,17.20
2019-05-29T02:18:58.955Z,17.20
2019-05-29T02:21:30.345Z,17.20
2019-05-29T02:24:00.534Z,17.20
2019-05-29T02:26:33.926Z,17.20
2019-05-29T02:32:46.391Z,17.20
2019-05-29T02:35:17.932Z,17.20
2019-05-29T02:37:49.373Z,17.20
2019-05-29T02:40:21.306Z,17.20
2019-05-29T02:42:51.600Z,17.20
2019-05-29T02:45:26.256Z,17.20
2019-05-29T02:47:56.300Z,17.10
2019-05-29T02:50:28.746Z,17.20
2019-05-29T02:52:58.470Z,17.20
2019-05-29T02:55:30.939Z,17.10
2019-05-29T02:58:01.404Z,17.20
2019-05-29T03:00:55.755Z,17.10
2019-05-29T03:03:29.534Z,17.10
2019-05-29T03:05:58.590Z,17.10
2019-05-29T03:11:33.821Z,17.10
2019-05-29T03:14:05.843Z,17.10
2019-05-29T03:16:36.129Z,17.10
2019-05-29T03:20:01.005Z,17.10
2019-05-29T03:22:33.154Z,17.20
2019-05-29T03:25:03.442Z,17.10
2019-05-29T03:31:20.185Z,17.10
2019-05-29T03:37:32.443Z,17.10
2019-05-29T03:43:49.884Z,17.10
2019-05-29T03:53:43.027Z,17.10
2019-05-29T03:59:50.538Z,17.10
2019-05-29T04:06:01.870Z,17.00
2019-05-29T04:15:56.919Z,17.40
2019-05-29T04:22:15.356Z,17.50
2019-05-29T04:28:34.901Z,17.60
2019-05-29T04:34:46.915Z,17.80
2019-05-29T04:38:19.639Z,17.80
2019-05-29T04:40:49.962Z,17.90
2019-05-29T04:49:37.729Z,18.10
2019-05-29T04:52:22.251Z,18.20
2019-05-29T04:54:52.537Z,18.30
2019-05-29T04:57:22.797Z,18.30
2019-05-29T05:03:35.346Z,18.30
2019-05-29T05:09:55.948Z,18.40
2019-05-29T05:16:03.858Z,18.50
2019-05-29T05:18:34.095Z,18.50
2019-05-29T05:24:49.871Z,18.60
2019-05-29T05:31:06.509Z,18.60
2019-05-29T05:37:02.694Z,18.60
2019-05-29T05:39:33.028Z,18.60
2019-05-29T05:49:27.094Z,18.70
2019-05-29T05:55:34.056Z,18.80
2019-05-29T05:58:38.318Z,18.80
2019-05-29T06:01:08.628Z,18.90
2019-05-29T06:03:40.614Z,19.00
2019-05-29T06:09:53.135Z,19.00
2019-05-29T06:16:19.030Z,19.10
2019-05-29T06:18:49.216Z,19.20
2019-05-29T06:21:20.538Z,19.20
2019-05-29T06:23:50.808Z,19.30
2019-05-29T06:26:25.397Z,19.30
2019-05-29T06:28:55.664Z,19.40
2019-05-29T06:31:27.262Z,19.40
2019-05-29T06:33:57.787Z,19.40
2019-05-29T06:36:29.084Z,19.50
2019-05-29T06:38:59.357Z,19.60
2019-05-29T06:41:32.138Z,19.60
2019-05-29T06:44:02.450Z,19.60
2019-05-29T06:46:34.229Z,19.70
2019-05-29T06:49:05.075Z,19.70
2019-05-29T06:51:37.104Z,19.80
2019-05-29T06:54:07.466Z,19.80
2019-05-29T06:56:39.786Z,19.90
2019-05-29T06:59:09.207Z,19.90
2019-05-29T07:01:39.547Z,20.00
2019-05-29T07:04:12.497Z,20.10
2019-05-29T07:06:44.811Z,20.10
2019-05-29T07:09:15.279Z,20.10
2019-05-29T07:11:45.581Z,20.20
2019-05-29T07:14:16.802Z,20.30
2019-05-29T07:16:55.513Z,20.40
2019-05-29T07:19:26.565Z,20.50
2019-05-29T07:21:52.674Z,20.60
2019-05-29T07:24:23.774Z,20.70
2019-05-29T07:26:53.998Z,20.80
2019-05-29T07:29:25.868Z,20.80
2019-05-29T07:31:56.159Z,20.90
2019-05-29T07:34:26.419Z,20.90
2019-05-29T07:36:56.647Z,20.90
2019-05-29T07:39:27.018Z,20.90
2019-05-29T07:41:57.551Z,21.00
2019-05-29T07:44:28.950Z,20.90
2019-05-29T07:47:00.841Z,20.80
2019-05-29T07:49:39.184Z,20.80
2019-05-29T07:52:03.707Z,20.50
2019-05-29T07:54:33.915Z,20.60
2019-05-29T07:57:04.100Z,20.60
2019-05-29T07:59:39.069Z,20.70
2019-05-29T08:02:09.572Z,20.80
2019-05-29T08:04:40.946Z,20.80
2019-05-29T08:07:11.346Z,20.80
2019-05-29T08:09:43.605Z,20.80
2019-05-29T08:12:13.062Z,20.90
2019-05-29T08:14:44.162Z,20.90
2019-05-29T08:17:14.736Z,21.00
2019-05-29T08:20:00.608Z,21.10
2019-05-29T08:22:33.366Z,21.20
2019-05-29T08:24:49.497Z,21.20
2019-05-29T08:27:20.551Z,21.20
2019-05-29T08:29:51.206Z,21.30
2019-05-29T08:32:22.533Z,21.20
2019-05-29T08:34:52.754Z,21.20
2019-05-29T08:37:23.003Z,21.10
2019-05-29T08:39:53.290Z,21.20
2019-05-29T08:42:24.721Z,21.10
2019-05-29T08:44:55.014Z,21.10
2019-05-29T08:47:25.314Z,21.30
2019-05-29T08:50:14.494Z,21.50
2019-05-29T08:52:27.459Z,21.50
2019-05-29T08:54:58.722Z,21.60
2019-05-29T08:57:29.002Z,21.70
2019-05-29T08:59:59.330Z,21.50
2019-05-29T09:02:29.605Z,21.70
2019-05-29T09:04:59.783Z,21.60
2019-05-29T09:07:30.095Z,21.60
2019-05-29T09:10:00.418Z,21.60
2019-05-29T09:12:30.738Z,21.80
2019-05-29T09:15:02.291Z,21.90
2019-05-29T09:17:34.587Z,22.00
2019-05-29T09:20:07.479Z,22.00
2019-05-29T09:22:37.781Z,22.20
2019-05-29T09:25:08.218Z,22.20
2019-05-29T09:27:38.540Z,21.90
2019-05-29T09:30:09.491Z,21.90
2019-05-29T09:32:50.335Z,21.90
2019-05-29T09:35:11.894Z,21.90
2019-05-29T09:37:42.215Z,22.00
2019-05-29T09:40:16.878Z,22.20
2019-05-29T09:42:49.382Z,22.20
2019-05-29T09:45:19.809Z,22.10
2019-05-29T09:47:49.992Z,21.80
2019-05-29T09:50:23.163Z,21.70
2019-05-29T09:52:53.226Z,21.70
2019-05-29T09:55:23.402Z,21.70
2019-05-29T09:58:07.168Z,21.90
2019-05-29T10:00:37.454Z,22.00
2019-05-29T10:03:07.805Z,22.20
2019-05-29T10:05:38.160Z,22.30
2019-05-29T10:08:09.490Z,22.40
2019-05-29T10:10:39.715Z,22.40
2019-05-29T10:13:09.989Z,22.50
2019-05-29T10:15:40.283Z,22.40
2019-05-29T10:18:30.596Z,22.20
2019-05-29T10:20:47.829Z,22.30
2019-05-29T10:23:20.100Z,22.40
2019-05-29T10:26:04.596Z,22.60
2019-05-29T10:28:50.252Z,22.60
2019-05-29T10:31:07.859Z,22.70
2019-05-29T10:33:42.496Z,22.80
2019-05-29T10:36:12.898Z,22.90
2019-05-29T10:38:46.545Z,22.90
2019-05-29T10:41:17.878Z,22.90
2019-05-29T10:43:53.472Z,22.90
2019-05-29T10:46:23.762Z,23.10
2019-05-29T10:48:56.385Z,23.20
2019-05-29T10:51:30.845Z,23.30
2019-05-29T10:54:01.135Z,23.50
2019-05-29T10:56:34.644Z,23.60
2019-05-29T10:59:05.304Z,23.50
2019-05-29T11:01:45.017Z,23.50
2019-05-29T11:04:15.430Z,23.50
2019-05-29T11:06:48.046Z,23.50
2019-05-29T11:09:18.454Z,23.60
2019-05-29T11:11:55.227Z,23.70
2019-05-29T11:14:25.561Z,23.60
2019-05-29T11:17:03.895Z,23.60
2019-05-29T11:19:34.189Z,23.50
2019-05-29T11:22:24.788Z,23.60
2019-05-29T11:24:35.777Z,23.60
2019-05-29T11:27:11.542Z,23.60
2019-05-29T11:29:41.722Z,23.70
2019-05-29T11:32:21.448Z,23.70
2019-05-29T11:34:53.854Z,23.70
2019-05-29T11:37:32.539Z,23.70
2019-05-29T11:40:03.375Z,23.70
2019-05-29T11:42:33.877Z,23.80
2019-05-29T11:45:09.432Z,23.80
2019-05-29T11:47:41.554Z,23.80
2019-05-29T11:50:19.342Z,23.80
2019-05-29T11:52:44.477Z,23.80
2019-05-29T11:55:15.154Z,23.90
2019-05-29T11:57:46.337Z,23.90
2019-05-29T12:00:22.759Z,23.90
2019-05-29T12:02:53.937Z,23.90
2019-05-29T12:05:25.202Z,24.00
2019-05-29T12:10:25.901Z,23.80
2019-05-29T12:12:57.444Z,23.80
2019-05-29T12:15:28.895Z,23.90
2019-05-29T12:18:21.902Z,23.90
2019-05-29T12:20:34.281Z,23.90
2019-05-29T12:23:23.787Z,23.80
2019-05-29T12:25:36.487Z,23.80
2019-05-29T12:28:07.332Z,23.70
2019-05-29T12:30:55.272Z,23.80
2019-05-29T12:33:26.832Z,23.80
2019-05-29T12:35:57.169Z,23.90
2019-05-29T12:38:34.387Z,24.10
2019-05-29T12:43:46.078Z,24.60
2019-05-29T12:46:16.343Z,24.70
2019-05-29T12:48:53.555Z,24.80
2019-05-29T12:51:26.947Z,24.90
2019-05-29T12:53:58.324Z,24.90
2019-05-29T12:56:31.006Z,25.00
2019-05-29T12:59:02.844Z,25.00
2019-05-29T13:01:54.410Z,25.10
2019-05-29T13:04:24.904Z,25.00
2019-05-29T13:07:02.562Z,25.10
2019-05-29T13:09:32.958Z,25.10
2019-05-29T13:12:07.472Z,25.00
2019-05-29T13:14:37.766Z,24.90
2019-05-29T13:17:21.339Z,24.90
2019-05-29T13:19:51.681Z,24.70
2019-05-29T13:22:29.137Z,24.60
2019-05-29T13:24:59.693Z,24.50
2019-05-29T13:28:26.818Z,24.40
2019-05-29T13:30:57.703Z,24.40
2019-05-29T13:36:06.732Z,24.30
2019-05-29T13:38:44.176Z,24.20
2019-05-29T13:41:14.467Z,24.00
2019-05-29T13:43:44.822Z,23.60
2019-05-29T13:46:16.426Z,23.50
2019-05-29T13:51:16.848Z,23.20
2019-05-29T13:54:01.937Z,23.10
2019-05-29T13:56:19.080Z,23.10
2019-05-29T13:58:49.291Z,23.00
2019-05-29T14:01:19.950Z,22.90
2019-05-29T14:04:08.877Z,22.80
2019-05-29T14:06:39.181Z,22.90
2019-05-29T14:11:43.301Z,22.60
2019-05-29T14:16:45.546Z,22.40
2019-05-29T14:19:15.882Z,22.30
2019-05-29T14:21:49.161Z,22.20
2019-05-29T14:24:29.345Z,22.20
2019-05-29T14:27:01.405Z,22.20
2019-05-29T14:29:31.814Z,22.20
2019-05-29T14:32:07.361Z,22.30
2019-05-29T14:34:37.845Z,22.40
2019-05-29T14:37:09.698Z,22.50
2019-05-29T14:39:45.886Z,22.40
2019-05-29T14:44:56.875Z,22.40
2019-05-29T14:47:27.244Z,22.40
2019-05-29T14:50:00.035Z,22.40
2019-05-29T14:52:51.435Z,22.30
2019-05-29T14:55:32.585Z,22.10
2019-05-29T14:58:07.772Z,22.00
2019-05-29T15:00:43.320Z,22.00
2019-05-29T15:03:35.575Z,22.00
2019-05-29T15:06:14.004Z,22.10
2019-05-29T15:09:03.522Z,22.10
2019-05-29T15:11:42.000Z,22.10
2019-05-29T15:14:44.646Z,22.10
2019-05-29T15:20:20.034Z,22.30
2019-05-29T15:22:50.302Z,22.30
2019-05-29T15:25:24.223Z,22.20
2019-05-29T15:27:53.570Z,22.20
2019-05-29T15:30:28.409Z,22.20
2019-05-29T15:32:58.684Z,22.30
2019-05-29T15:35:29.133Z,22.40
2019-05-29T15:37:59.464Z,22.50
2019-05-29T15:40:33.578Z,22.40
2019-05-29T15:43:03.820Z,22.40
2019-05-29T15:45:36.124Z,22.30
2019-05-29T15:48:17.601Z,22.30
2019-05-29T15:50:49.025Z,22.20
2019-05-29T15:53:40.771Z,22.10
2019-05-29T15:56:22.792Z,22.10
2019-05-29T15:58:43.066Z,22.20
2019-05-29T16:01:33.048Z,22.20
2019-05-29T16:04:03.392Z,22.30
2019-05-29T16:06:36.039Z,22.40
2019-05-29T16:09:08.272Z,22.40
2019-05-29T16:14:12.914Z,22.40
2019-05-29T16:16:47.307Z,22.30
2019-05-29T16:19:18.360Z,22.30
2019-05-29T16:22:28.681Z,22.30
2019-05-29T16:24:58.958Z,22.20
2019-05-29T16:27:31.030Z,22.10
2019-05-29T16:30:27.874Z,22.10
2019-05-29T16:32:58.499Z,22.10
2019-05-29T16:36:03.505Z,22.10
2019-05-29T16:38:33.703Z,22.00
2019-05-29T16:41:05.361Z,21.90
2019-05-29T16:43:35.551Z,21.80
2019-05-29T16:46:05.896Z,21.60
2019-05-29T16:48:39.798Z,21.50
2019-05-29T16:51:10.076Z,21.50
2019-05-29T16:53:45.199Z,21.40
2019-05-29T16:56:16.788Z,21.40
2019-05-29T16:58:47.196Z,21.30
2019-05-29T17:03:49.674Z,21.20
2019-05-29T17:06:34.653Z,21.10
2019-05-29T17:09:08.625Z,21.00
2019-05-29T17:11:49.562Z,20.90
2019-05-29T17:14:20.831Z,20.90
2019-05-29T17:16:53.446Z,20.90
2019-05-29T17:19:25.049Z,20.90
2019-05-29T17:21:56.858Z,20.90
2019-05-29T17:24:27.178Z,20.80
2019-05-29T17:26:57.531Z,20.80
2019-05-29T17:29:27.846Z,20.80
2019-05-29T17:32:01.216Z,20.70
2019-05-29T17:34:31.624Z,20.70
2019-05-29T17:37:03.438Z,20.60
2019-05-29T17:39:33.699Z,20.50
2019-05-29T17:42:04.122Z,20.50
2019-05-29T17:44:34.394Z,20.40
2019-05-29T17:47:04.758Z,20.30
2019-05-29T17:49:35.025Z,20.30
2019-05-29T17:52:08.515Z,20.30
2019-05-29T17:54:38.921Z,20.30
2019-05-29T17:57:09.607Z,20.20
2019-05-29T17:59:44.073Z,20.10
2019-05-29T18:02:14.334Z,20.00
2019-05-29T18:04:55.030Z,19.90
2019-05-29T18:07:26.627Z,19.90
2019-05-29T18:09:57.496Z,19.90
2019-05-29T18:12:38.335Z,19.90
2019-05-29T18:15:10.044Z,20.00
2019-05-29T18:18:08.150Z,20.00
2019-05-29T18:20:38.382Z,19.90
2019-05-29T18:23:28.182Z,19.80
2019-05-29T18:25:59.075Z,19.90
2019-05-29T18:31:00.727Z,19.70
2019-05-29T18:33:31.049Z,19.60
2019-05-29T18:36:01.354Z,19.50
2019-05-29T18:38:42.786Z,19.40
2019-05-29T18:41:14.542Z,19.40
2019-05-29T18:43:45.199Z,19.40
2019-05-29T18:47:09.854Z,19.40
2019-05-29T18:49:40.249Z,19.40
2019-05-29T18:52:10.569Z,19.40
2019-05-29T18:58:24.257Z,19.40
2019-05-29T19:00:54.586Z,19.40
2019-05-29T19:03:25.368Z,19.40
2019-05-29T19:09:34.693Z,19.40
2019-05-29T19:12:08.184Z,19.30
2019-05-29T19:14:38.405Z,19.30
2019-05-29T19:17:43.880Z,19.30
2019-05-29T19:20:15.162Z,19.30
2019-05-29T19:22:45.447Z,19.20
2019-05-29T19:25:39.967Z,19.20
2019-05-29T19:28:10.594Z,19.20
2019-05-29T19:30:40.907Z,19.20
2019-05-29T19:33:20.216Z,19.10
2019-05-29T19:35:50.660Z,19.10
2019-05-29T19:38:20.909Z,19.00
2019-05-29T19:41:16.835Z,18.90
2019-05-29T19:43:47.629Z,18.90
2019-05-29T19:46:28.578Z,18.90
2019-05-29T19:48:58.879Z,18.90
2019-05-29T19:51:29.236Z,18.90
2019-05-29T19:54:00.570Z,18.90
2019-05-29T19:56:31.737Z,18.90
2019-05-29T19:59:02.135Z,18.90
2019-05-29T20:01:40.248Z,18.80
2019-05-29T20:04:07.703Z,18.80
2019-05-29T20:06:44.969Z,18.80
2019-05-29T20:09:15.617Z,18.80
2019-05-29T20:11:45.891Z,18.80
2019-05-29T20:14:38.188Z,18.80
2019-05-29T20:17:08.818Z,18.80
2019-05-29T20:20:19.469Z,18.80
2019-05-29T20:22:49.766Z,18.70
2019-05-29T20:25:20.415Z,18.70
2019-05-29T20:28:45.897Z,18.60
2019-05-29T20:31:16.198Z,18.70
2019-05-29T20:33:46.482Z,18.60
2019-05-29T20:36:19.997Z,18.60
2019-05-29T20:38:50.267Z,18.50
2019-05-29T20:41:20.628Z,18.60
2019-05-29T20:43:52.978Z,18.50
2019-05-29T20:46:22.516Z,18.40
2019-05-29T20:49:22.362Z,18.40
2019-05-29T20:54:37.683Z,18.40
2019-05-29T21:00:47.175Z,18.30
2019-05-29T21:07:17.334Z,18.10
2019-05-29T21:09:47.666Z,18.00
2019-05-29T21:12:18.247Z,18.00
2019-05-29T21:18:35.786Z,17.90
2019-05-29T22:10:59.514Z,17.40
2019-05-29T22:13:30.047Z,17.40
2019-05-29T22:16:00.945Z,17.40
2019-05-29T22:18:31.354Z,17.30
2019-05-29T22:23:32.186Z,17.30
2019-05-29T22:26:02.517Z,17.30
2019-05-29T22:28:32.808Z,17.20
2019-05-29T22:31:04.177Z,17.30
2019-05-29T22:33:34.698Z,17.30
2019-05-29T22:36:05.292Z,17.20
2019-05-29T22:38:35.693Z,17.30
2019-05-29T22:41:05.900Z,17.30
2019-05-29T22:43:37.675Z,17.30
2019-05-29T22:46:08.315Z,17.30
2019-05-29T22:48:38.633Z,17.20
2019-05-29T22:51:08.975Z,17.20
2019-05-29T22:53:39.186Z,17.20
2019-05-29T22:56:11.448Z,17.20
2019-05-29T22:58:41.797Z,17.20
2019-05-29T23:01:12.400Z,17.20
2019-05-29T23:03:42.762Z,17.20
2019-05-29T23:06:13.009Z,17.10
2019-05-29T23:08:43.328Z,17.10
2019-05-29T23:11:13.651Z,17.10
2019-05-29T23:16:14.757Z,17.20
2019-05-29T23:18:45.018Z,17.20
2019-05-29T23:21:15.449Z,17.10
2019-05-29T23:23:46.032Z,17.10
2019-05-29T23:26:16.333Z,17.00
2019-05-29T23:28:46.879Z,16.90
2019-05-29T23:31:17.105Z,16.90
2019-05-29T23:33:47.326Z,16.90
2019-05-29T23:36:18.581Z,17.00
2019-05-29T23:38:48.847Z,16.90
2019-05-29T23:41:19.201Z,16.90
2019-05-29T23:43:49.478Z,16.90
2019-05-29T23:46:19.752Z,16.90
2019-05-29T23:48:50.070Z,16.90
2019-05-29T23:51:20.390Z,16.90
2019-05-29T23:53:50.681Z,16.90
2019-05-29T23:56:21.096Z,16.90
2019-05-29T23:58:51.361Z,16.90
